sensor_id;sensor_type;location;lat;lon;timestamp;pressure;altitude;pressure_sealevel;temperature
19282;BMP180;9774;52.034;5.342;2023-08-01T00:00:45;99716.00;;;22.30
19282;BMP180;9774;52.034;5.342;2023-08-01T00:03:12;99714.00;;;22.30
19282;BMP180;9774;52.034;5.342;2023-08-01T00:05:40;99722.00;;;22.30
19282;BMP180;9774;52.034;5.342;2023-08-01T00:08:11;99717.00;;;22.30
19282;BMP180;9774;52.034;5.342;2023-08-01T00:10:39;99707.00;;;22.30
19282;BMP180;9774;52.034;5.342;2023-08-01T00:13:07;99718.00;;;22.30
19282;BMP180;9774;52.034;5.342;2023-08-01T00:15:35;99717.00;;;22.30
19282;BMP180;9774;52.034;5.342;2023-08-01T00:18:02;99708.00;;;22.30
19282;BMP180;9774;52.034;5.342;2023-08-01T00:20:30;99704.00;;;22.30
19282;BMP180;9774;52.034;5.342;2023-08-01T00:22:57;99701.00;;;22.30
19282;BMP180;9774;52.034;5.342;2023-08-01T00:25:26;99695.00;;;22.30
19282;BMP180;9774;52.034;5.342;2023-08-01T00:45:45;99663.00;;;21.90
19282;BMP180;9774;52.034;5.342;2023-08-01T00:48:12;99661.00;;;21.90
19282;BMP180;9774;52.034;5.342;2023-08-01T00:50:40;99652.00;;;22.00
19282;BMP180;9774;52.034;5.342;2023-08-01T00:53:07;99644.00;;;22.00
19282;BMP180;9774;52.034;5.342;2023-08-01T00:55:34;99647.00;;;22.00
19282;BMP180;9774;52.034;5.342;2023-08-01T00:58:02;99645.00;;;22.00
19282;BMP180;9774;52.034;5.342;2023-08-01T01:00:29;99642.00;;;22.00
19282;BMP180;9774;52.034;5.342;2023-08-01T01:02:57;99633.00;;;22.00
19282;BMP180;9774;52.034;5.342;2023-08-01T01:05:26;99626.00;;;22.00
19282;BMP180;9774;52.034;5.342;2023-08-01T01:07:55;99639.00;;;22.00
19282;BMP180;9774;52.034;5.342;2023-08-01T01:10:22;99642.00;;;22.00
19282;BMP180;9774;52.034;5.342;2023-08-01T01:12:49;99631.00;;;22.00
19282;BMP180;9774;52.034;5.342;2023-08-01T01:15:16;99631.00;;;22.00
19282;BMP180;9774;52.034;5.342;2023-08-01T01:17:43;99633.00;;;22.00
19282;BMP180;9774;52.034;5.342;2023-08-01T01:20:12;99632.00;;;21.90
19282;BMP180;9774;52.034;5.342;2023-08-01T01:22:40;99633.00;;;21.90
19282;BMP180;9774;52.034;5.342;2023-08-01T01:25:10;99641.00;;;21.90
19282;BMP180;9774;52.034;5.342;2023-08-01T01:27:38;99643.00;;;21.90
19282;BMP180;9774;52.034;5.342;2023-08-01T01:30:07;99642.00;;;21.80
19282;BMP180;9774;52.034;5.342;2023-08-01T01:32:34;99647.00;;;21.80
19282;BMP180;9774;52.034;5.342;2023-08-01T01:35:03;99642.00;;;21.80
19282;BMP180;9774;52.034;5.342;2023-08-01T01:37:30;99642.00;;;21.80
19282;BMP180;9774;52.034;5.342;2023-08-01T01:39:59;99634.00;;;21.80
19282;BMP180;9774;52.034;5.342;2023-08-01T01:42:26;99639.00;;;21.80
19282;BMP180;9774;52.034;5.342;2023-08-01T01:44:52;99642.00;;;21.80
19282;BMP180;9774;52.034;5.342;2023-08-01T01:47:20;99647.00;;;21.70
19282;BMP180;9774;52.034;5.342;2023-08-01T01:49:47;99645.00;;;21.70
19282;BMP180;9774;52.034;5.342;2023-08-01T01:52:14;99639.00;;;21.70
19282;BMP180;9774;52.034;5.342;2023-08-01T01:54:41;99637.00;;;21.70
19282;BMP180;9774;52.034;5.342;2023-08-01T01:57:09;99633.00;;;21.70
19282;BMP180;9774;52.034;5.342;2023-08-01T01:59:36;99636.00;;;21.70
19282;BMP180;9774;52.034;5.342;2023-08-01T02:02:03;99627.00;;;21.70
19282;BMP180;9774;52.034;5.342;2023-08-01T02:04:30;99630.00;;;21.60
19282;BMP180;9774;52.034;5.342;2023-08-01T02:06:57;99629.00;;;21.60
19282;BMP180;9774;52.034;5.342;2023-08-01T02:09:24;99629.00;;;21.60
19282;BMP180;9774;52.034;5.342;2023-08-01T02:11:51;99621.00;;;21.60
19282;BMP180;9774;52.034;5.342;2023-08-01T02:14:19;99627.00;;;21.60
19282;BMP180;9774;52.034;5.342;2023-08-01T02:16:46;99625.00;;;21.60
19282;BMP180;9774;52.034;5.342;2023-08-01T02:19:13;99621.00;;;21.60
19282;BMP180;9774;52.034;5.342;2023-08-01T02:21:40;99613.00;;;21.60
19282;BMP180;9774;52.034;5.342;2023-08-01T02:24:07;99615.00;;;21.60
19282;BMP180;9774;52.034;5.342;2023-08-01T02:26:34;99623.00;;;21.60
19282;BMP180;9774;52.034;5.342;2023-08-01T02:29:01;99620.00;;;21.60
19282;BMP180;9774;52.034;5.342;2023-08-01T02:31:29;99619.00;;;21.60
19282;BMP180;9774;52.034;5.342;2023-08-01T02:33:56;99610.00;;;21.60
19282;BMP180;9774;52.034;5.342;2023-08-01T02:36:23;99610.00;;;21.60
19282;BMP180;9774;52.034;5.342;2023-08-01T02:38:50;99615.00;;;21.60
19282;BMP180;9774;52.034;5.342;2023-08-01T02:41:17;99614.00;;;21.60
19282;BMP180;9774;52.034;5.342;2023-08-01T02:43:44;99616.00;;;21.60
19282;BMP180;9774;52.034;5.342;2023-08-01T02:46:10;99613.00;;;21.60
19282;BMP180;9774;52.034;5.342;2023-08-01T02:48:39;99612.00;;;21.60
19282;BMP180;9774;52.034;5.342;2023-08-01T02:51:06;99614.00;;;21.60
19282;BMP180;9774;52.034;5.342;2023-08-01T02:53:34;99622.00;;;21.60
19282;BMP180;9774;52.034;5.342;2023-08-01T02:56:02;99616.00;;;21.60
19282;BMP180;9774;52.034;5.342;2023-08-01T02:58:32;99612.00;;;21.60
19282;BMP180;9774;52.034;5.342;2023-08-01T03:00:58;99621.00;;;21.60
19282;BMP180;9774;52.034;5.342;2023-08-01T03:03:27;99612.00;;;21.60
19282;BMP180;9774;52.034;5.342;2023-08-01T03:05:55;99617.00;;;21.60
19282;BMP180;9774;52.034;5.342;2023-08-01T03:08:22;99610.00;;;21.60
19282;BMP180;9774;52.034;5.342;2023-08-01T03:10:49;99614.00;;;21.70
19282;BMP180;9774;52.034;5.342;2023-08-01T03:13:16;99617.00;;;21.70
19282;BMP180;9774;52.034;5.342;2023-08-01T03:15:43;99603.00;;;21.70
19282;BMP180;9774;52.034;5.342;2023-08-01T03:18:09;99610.00;;;21.70
19282;BMP180;9774;52.034;5.342;2023-08-01T03:20:37;99610.00;;;21.70
19282;BMP180;9774;52.034;5.342;2023-08-01T03:23:05;99616.00;;;21.70
19282;BMP180;9774;52.034;5.342;2023-08-01T03:25:32;99622.00;;;21.70
19282;BMP180;9774;52.034;5.342;2023-08-01T03:27:59;99622.00;;;21.70
19282;BMP180;9774;52.034;5.342;2023-08-01T03:30:26;99620.00;;;21.70
19282;BMP180;9774;52.034;5.342;2023-08-01T03:32:53;99616.00;;;21.70
19282;BMP180;9774;52.034;5.342;2023-08-01T03:35:20;99620.00;;;21.70
19282;BMP180;9774;52.034;5.342;2023-08-01T03:37:47;99620.00;;;21.70
19282;BMP180;9774;52.034;5.342;2023-08-01T03:40:15;99620.00;;;21.70
19282;BMP180;9774;52.034;5.342;2023-08-01T03:42:42;99624.00;;;21.80
19282;BMP180;9774;52.034;5.342;2023-08-01T03:45:10;99633.00;;;21.80
19282;BMP180;9774;52.034;5.342;2023-08-01T03:47:37;99643.00;;;21.80
19282;BMP180;9774;52.034;5.342;2023-08-01T03:50:05;99628.00;;;21.80
19282;BMP180;9774;52.034;5.342;2023-08-01T03:52:32;99634.00;;;21.80
19282;BMP180;9774;52.034;5.342;2023-08-01T03:54:59;99622.00;;;21.80
19282;BMP180;9774;52.034;5.342;2023-08-01T03:57:27;99627.00;;;21.80
19282;BMP180;9774;52.034;5.342;2023-08-01T03:59:54;99641.00;;;21.80
19282;BMP180;9774;52.034;5.342;2023-08-01T04:02:21;99634.00;;;21.90
19282;BMP180;9774;52.034;5.342;2023-08-01T04:04:48;99632.00;;;21.90
19282;BMP180;9774;52.034;5.342;2023-08-01T04:07:15;99634.00;;;21.90
19282;BMP180;9774;52.034;5.342;2023-08-01T04:09:42;99642.00;;;21.90
19282;BMP180;9774;52.034;5.342;2023-08-01T04:12:09;99634.00;;;21.90
19282;BMP180;9774;52.034;5.342;2023-08-01T04:14:37;99625.00;;;21.90
19282;BMP180;9774;52.034;5.342;2023-08-01T04:17:04;99631.00;;;21.90
19282;BMP180;9774;52.034;5.342;2023-08-01T04:19:31;99632.00;;;21.90
19282;BMP180;9774;52.034;5.342;2023-08-01T04:21:58;99633.00;;;21.90
19282;BMP180;9774;52.034;5.342;2023-08-01T04:24:25;99638.00;;;21.90
19282;BMP180;9774;52.034;5.342;2023-08-01T04:26:53;99632.00;;;21.90
19282;BMP180;9774;52.034;5.342;2023-08-01T04:29:20;99629.00;;;21.90
19282;BMP180;9774;52.034;5.342;2023-08-01T04:31:48;99623.00;;;21.90
19282;BMP180;9774;52.034;5.342;2023-08-01T04:34:15;99618.00;;;21.90
19282;BMP180;9774;52.034;5.342;2023-08-01T04:36:42;99624.00;;;21.90
19282;BMP180;9774;52.034;5.342;2023-08-01T04:39:09;99625.00;;;21.90
19282;BMP180;9774;52.034;5.342;2023-08-01T04:41:36;99626.00;;;21.90
19282;BMP180;9774;52.034;5.342;2023-08-01T04:44:03;99629.00;;;21.90
19282;BMP180;9774;52.034;5.342;2023-08-01T04:46:30;99620.00;;;21.90
19282;BMP180;9774;52.034;5.342;2023-08-01T04:48:58;99615.00;;;21.90
19282;BMP180;9774;52.034;5.342;2023-08-01T04:51:25;99618.00;;;21.90
19282;BMP180;9774;52.034;5.342;2023-08-01T04:53:52;99613.00;;;21.90
19282;BMP180;9774;52.034;5.342;2023-08-01T04:56:19;99619.00;;;21.90
19282;BMP180;9774;52.034;5.342;2023-08-01T04:58:46;99619.00;;;21.90
19282;BMP180;9774;52.034;5.342;2023-08-01T05:01:13;99615.00;;;21.90
19282;BMP180;9774;52.034;5.342;2023-08-01T05:03:40;99616.00;;;21.90
19282;BMP180;9774;52.034;5.342;2023-08-01T05:06:08;99618.00;;;22.00
19282;BMP180;9774;52.034;5.342;2023-08-01T05:08:35;99627.00;;;22.00
19282;BMP180;9774;52.034;5.342;2023-08-01T05:11:02;99614.00;;;22.00
19282;BMP180;9774;52.034;5.342;2023-08-01T05:13:29;99626.00;;;22.00
19282;BMP180;9774;52.034;5.342;2023-08-01T05:15:56;99637.00;;;22.00
19282;BMP180;9774;52.034;5.342;2023-08-01T05:18:23;99634.00;;;22.00
19282;BMP180;9774;52.034;5.342;2023-08-01T05:20:50;99631.00;;;22.00
19282;BMP180;9774;52.034;5.342;2023-08-01T05:23:18;99632.00;;;22.00
19282;BMP180;9774;52.034;5.342;2023-08-01T05:25:45;99627.00;;;22.10
19282;BMP180;9774;52.034;5.342;2023-08-01T05:28:12;99632.00;;;22.10
19282;BMP180;9774;52.034;5.342;2023-08-01T05:30:40;99631.00;;;22.10
19282;BMP180;9774;52.034;5.342;2023-08-01T05:33:07;99634.00;;;22.10
19282;BMP180;9774;52.034;5.342;2023-08-01T05:35:34;99639.00;;;22.10
19282;BMP180;9774;52.034;5.342;2023-08-01T05:38:01;99643.00;;;22.10
19282;BMP180;9774;52.034;5.342;2023-08-01T05:40:29;99647.00;;;22.10
19282;BMP180;9774;52.034;5.342;2023-08-01T05:42:56;99646.00;;;22.10
19282;BMP180;9774;52.034;5.342;2023-08-01T05:45:23;99643.00;;;22.10
19282;BMP180;9774;52.034;5.342;2023-08-01T05:47:50;99643.00;;;22.20
19282;BMP180;9774;52.034;5.342;2023-08-01T05:50:17;99649.00;;;22.20
19282;BMP180;9774;52.034;5.342;2023-08-01T05:52:44;99645.00;;;22.20
19282;BMP180;9774;52.034;5.342;2023-08-01T05:55:11;99651.00;;;22.20
19282;BMP180;9774;52.034;5.342;2023-08-01T05:57:40;99650.00;;;22.20
19282;BMP180;9774;52.034;5.342;2023-08-01T06:00:08;99647.00;;;22.20
19282;BMP180;9774;52.034;5.342;2023-08-01T06:02:35;99651.00;;;22.20
19282;BMP180;9774;52.034;5.342;2023-08-01T06:05:03;99660.00;;;22.30
19282;BMP180;9774;52.034;5.342;2023-08-01T06:07:30;99660.00;;;22.30
19282;BMP180;9774;52.034;5.342;2023-08-01T06:09:57;99657.00;;;22.30
19282;BMP180;9774;52.034;5.342;2023-08-01T06:12:24;99656.00;;;22.30
19282;BMP180;9774;52.034;5.342;2023-08-01T06:14:53;99653.00;;;22.30
19282;BMP180;9774;52.034;5.342;2023-08-01T06:17:19;99664.00;;;22.30
19282;BMP180;9774;52.034;5.342;2023-08-01T06:19:46;99663.00;;;22.30
19282;BMP180;9774;52.034;5.342;2023-08-01T06:22:15;99667.00;;;22.30
19282;BMP180;9774;52.034;5.342;2023-08-01T06:24:42;99666.00;;;22.30
19282;BMP180;9774;52.034;5.342;2023-08-01T06:27:09;99663.00;;;22.30
19282;BMP180;9774;52.034;5.342;2023-08-01T06:29:36;99674.00;;;22.40
19282;BMP180;9774;52.034;5.342;2023-08-01T06:32:06;99678.00;;;22.40
19282;BMP180;9774;52.034;5.342;2023-08-01T06:34:33;99678.00;;;22.40
19282;BMP180;9774;52.034;5.342;2023-08-01T06:37:00;99678.00;;;22.50
19282;BMP180;9774;52.034;5.342;2023-08-01T06:39:27;99682.00;;;22.50
19282;BMP180;9774;52.034;5.342;2023-08-01T06:41:54;99689.00;;;22.50
19282;BMP180;9774;52.034;5.342;2023-08-01T06:44:21;99694.00;;;22.60
19282;BMP180;9774;52.034;5.342;2023-08-01T06:46:48;99686.00;;;22.60
19282;BMP180;9774;52.034;5.342;2023-08-01T06:49:16;99690.00;;;22.60
19282;BMP180;9774;52.034;5.342;2023-08-01T06:51:43;99701.00;;;22.70
19282;BMP180;9774;52.034;5.342;2023-08-01T06:54:10;99688.00;;;22.70
19282;BMP180;9774;52.034;5.342;2023-08-01T06:56:36;99686.00;;;22.70
19282;BMP180;9774;52.034;5.342;2023-08-01T06:59:03;99691.00;;;22.70
19282;BMP180;9774;52.034;5.342;2023-08-01T07:01:30;99695.00;;;22.80
19282;BMP180;9774;52.034;5.342;2023-08-01T07:03:58;99688.00;;;22.80
19282;BMP180;9774;52.034;5.342;2023-08-01T07:06:26;99689.00;;;22.90
19282;BMP180;9774;52.034;5.342;2023-08-01T07:08:53;99693.00;;;22.90
19282;BMP180;9774;52.034;5.342;2023-08-01T07:11:20;99694.00;;;23.00
19282;BMP180;9774;52.034;5.342;2023-08-01T07:13:47;99691.00;;;23.00
19282;BMP180;9774;52.034;5.342;2023-08-01T07:16:14;99686.00;;;23.10
19282;BMP180;9774;52.034;5.342;2023-08-01T07:18:41;99687.00;;;23.10
19282;BMP180;9774;52.034;5.342;2023-08-01T07:21:08;99682.00;;;23.10
19282;BMP180;9774;52.034;5.342;2023-08-01T07:23:36;99697.00;;;23.20
19282;BMP180;9774;52.034;5.342;2023-08-01T07:26:03;99707.00;;;23.20
19282;BMP180;9774;52.034;5.342;2023-08-01T07:28:30;99697.00;;;23.20
19282;BMP180;9774;52.034;5.342;2023-08-01T07:31:01;99708.00;;;23.10
19282;BMP180;9774;52.034;5.342;2023-08-01T07:33:28;99708.00;;;23.20
19282;BMP180;9774;52.034;5.342;2023-08-01T07:35:55;99711.00;;;23.10
19282;BMP180;9774;52.034;5.342;2023-08-01T07:38:22;99701.00;;;23.10
19282;BMP180;9774;52.034;5.342;2023-08-01T07:40:51;99705.00;;;23.10
19282;BMP180;9774;52.034;5.342;2023-08-01T07:43:18;99711.00;;;23.00
19282;BMP180;9774;52.034;5.342;2023-08-01T07:45:45;99710.00;;;23.00
19282;BMP180;9774;52.034;5.342;2023-08-01T07:48:12;99707.00;;;23.00
19282;BMP180;9774;52.034;5.342;2023-08-01T07:50:39;99719.00;;;23.00
19282;BMP180;9774;52.034;5.342;2023-08-01T07:53:05;99720.00;;;23.00
19282;BMP180;9774;52.034;5.342;2023-08-01T07:55:34;99720.00;;;23.10
19282;BMP180;9774;52.034;5.342;2023-08-01T07:58:02;99711.00;;;23.10
19282;BMP180;9774;52.034;5.342;2023-08-01T08:00:29;99703.00;;;23.10
19282;BMP180;9774;52.034;5.342;2023-08-01T08:02:56;99708.00;;;23.20
19282;BMP180;9774;52.034;5.342;2023-08-01T08:05:23;99716.00;;;23.30
19282;BMP180;9774;52.034;5.342;2023-08-01T08:07:50;99720.00;;;23.30
19282;BMP180;9774;52.034;5.342;2023-08-01T08:10:17;99720.00;;;23.40
19282;BMP180;9774;52.034;5.342;2023-08-01T08:12:44;99727.00;;;23.40
19282;BMP180;9774;52.034;5.342;2023-08-01T08:15:12;99729.00;;;23.40
19282;BMP180;9774;52.034;5.342;2023-08-01T08:17:41;99733.00;;;23.40
19282;BMP180;9774;52.034;5.342;2023-08-01T08:20:09;99729.00;;;23.40
19282;BMP180;9774;52.034;5.342;2023-08-01T08:22:36;99731.00;;;23.40
19282;BMP180;9774;52.034;5.342;2023-08-01T08:25:03;99730.00;;;23.40
19282;BMP180;9774;52.034;5.342;2023-08-01T08:27:30;99727.00;;;23.50
19282;BMP180;9774;52.034;5.342;2023-08-01T08:29:57;99733.00;;;23.60
19282;BMP180;9774;52.034;5.342;2023-08-01T08:32:25;99728.00;;;23.60
19282;BMP180;9774;52.034;5.342;2023-08-01T08:34:52;99731.00;;;23.70
19282;BMP180;9774;52.034;5.342;2023-08-01T08:37:19;99734.00;;;23.80
19282;BMP180;9774;52.034;5.342;2023-08-01T08:39:47;99730.00;;;23.80
19282;BMP180;9774;52.034;5.342;2023-08-01T08:42:17;99744.00;;;23.90
19282;BMP180;9774;52.034;5.342;2023-08-01T08:44:49;99734.00;;;23.90
19282;BMP180;9774;52.034;5.342;2023-08-01T08:47:17;99735.00;;;24.00
19282;BMP180;9774;52.034;5.342;2023-08-01T08:49:46;99725.00;;;24.10
19282;BMP180;9774;52.034;5.342;2023-08-01T08:52:14;99737.00;;;24.10
19282;BMP180;9774;52.034;5.342;2023-08-01T08:54:42;99732.00;;;24.10
19282;BMP180;9774;52.034;5.342;2023-08-01T08:57:10;99732.00;;;24.10
19282;BMP180;9774;52.034;5.342;2023-08-01T08:59:38;99743.00;;;24.10
19282;BMP180;9774;52.034;5.342;2023-08-01T09:02:06;99736.00;;;24.10
19282;BMP180;9774;52.034;5.342;2023-08-01T09:04:33;99742.00;;;24.10
19282;BMP180;9774;52.034;5.342;2023-08-01T09:07:03;99746.00;;;24.10
19282;BMP180;9774;52.034;5.342;2023-08-01T09:09:34;99739.00;;;24.10
19282;BMP180;9774;52.034;5.342;2023-08-01T09:12:03;99750.00;;;24.10
19282;BMP180;9774;52.034;5.342;2023-08-01T09:14:30;99742.00;;;24.10
19282;BMP180;9774;52.034;5.342;2023-08-01T09:17:06;99748.00;;;24.00
19282;BMP180;9774;52.034;5.342;2023-08-01T09:19:34;99749.00;;;24.10
19282;BMP180;9774;52.034;5.342;2023-08-01T09:22:09;99753.00;;;24.00
19282;BMP180;9774;52.034;5.342;2023-08-01T09:24:36;99750.00;;;24.10
19282;BMP180;9774;52.034;5.342;2023-08-01T09:27:05;99753.00;;;24.20
19282;BMP180;9774;52.034;5.342;2023-08-01T09:29:34;99762.00;;;24.20
19282;BMP180;9774;52.034;5.342;2023-08-01T09:32:12;99763.00;;;24.10
19282;BMP180;9774;52.034;5.342;2023-08-01T09:34:40;99770.00;;;24.20
19282;BMP180;9774;52.034;5.342;2023-08-01T09:37:09;99775.00;;;24.20
19282;BMP180;9774;52.034;5.342;2023-08-01T09:39:36;99769.00;;;24.30
19282;BMP180;9774;52.034;5.342;2023-08-01T09:42:04;99766.00;;;24.30
19282;BMP180;9774;52.034;5.342;2023-08-01T09:44:31;99767.00;;;24.30
19282;BMP180;9774;52.034;5.342;2023-08-01T09:47:00;99786.00;;;24.30
19282;BMP180;9774;52.034;5.342;2023-08-01T09:49:27;99782.00;;;24.30
19282;BMP180;9774;52.034;5.342;2023-08-01T09:51:55;99785.00;;;24.40
19282;BMP180;9774;52.034;5.342;2023-08-01T09:54:24;99785.00;;;24.40
19282;BMP180;9774;52.034;5.342;2023-08-01T09:56:53;99775.00;;;24.50
19282;BMP180;9774;52.034;5.342;2023-08-01T09:59:22;99771.00;;;24.60
19282;BMP180;9774;52.034;5.342;2023-08-01T10:01:52;99778.00;;;24.70
19282;BMP180;9774;52.034;5.342;2023-08-01T10:04:24;99789.00;;;24.80
19282;BMP180;9774;52.034;5.342;2023-08-01T10:06:58;99775.00;;;24.90
19282;BMP180;9774;52.034;5.342;2023-08-01T10:09:27;99780.00;;;25.00
19282;BMP180;9774;52.034;5.342;2023-08-01T10:11:58;99788.00;;;25.10
19282;BMP180;9774;52.034;5.342;2023-08-01T10:14:25;99794.00;;;25.10
19282;BMP180;9774;52.034;5.342;2023-08-01T10:16:54;99790.00;;;25.00
19282;BMP180;9774;52.034;5.342;2023-08-01T10:19:22;99798.00;;;25.00
19282;BMP180;9774;52.034;5.342;2023-08-01T10:21:49;99800.00;;;25.00
19282;BMP180;9774;52.034;5.342;2023-08-01T10:24:19;99803.00;;;24.90
19282;BMP180;9774;52.034;5.342;2023-08-01T10:26:47;99801.00;;;24.90
19282;BMP180;9774;52.034;5.342;2023-08-01T10:29:14;99807.00;;;25.00
19282;BMP180;9774;52.034;5.342;2023-08-01T10:31:51;99806.00;;;24.90
19282;BMP180;9774;52.034;5.342;2023-08-01T10:34:19;99823.00;;;25.00
19282;BMP180;9774;52.034;5.342;2023-08-01T10:36:54;99809.00;;;24.90
19282;BMP180;9774;52.034;5.342;2023-08-01T10:39:23;99807.00;;;25.00
19282;BMP180;9774;52.034;5.342;2023-08-01T10:41:59;99809.00;;;25.00
19282;BMP180;9774;52.034;5.342;2023-08-01T10:44:27;99813.00;;;25.10
19282;BMP180;9774;52.034;5.342;2023-08-01T10:46:59;99818.00;;;25.10
19282;BMP180;9774;52.034;5.342;2023-08-01T10:49:38;99821.00;;;25.10
19282;BMP180;9774;52.034;5.342;2023-08-01T10:52:16;99830.00;;;25.00
19282;BMP180;9774;52.034;5.342;2023-08-01T10:54:44;99833.00;;;25.10
19282;BMP180;9774;52.034;5.342;2023-08-01T10:57:18;99828.00;;;25.10
19282;BMP180;9774;52.034;5.342;2023-08-01T10:59:45;99826.00;;;25.20
19282;BMP180;9774;52.034;5.342;2023-08-01T11:02:20;99829.00;;;25.10
19282;BMP180;9774;52.034;5.342;2023-08-01T11:04:56;99824.00;;;25.20
19282;BMP180;9774;52.034;5.342;2023-08-01T11:07:23;99829.00;;;25.30
19282;BMP180;9774;52.034;5.342;2023-08-01T11:10:06;99837.00;;;25.30
19282;BMP180;9774;52.034;5.342;2023-08-01T11:12:36;99837.00;;;25.50
19282;BMP180;9774;52.034;5.342;2023-08-01T11:15:05;99832.00;;;25.60
19282;BMP180;9774;52.034;5.342;2023-08-01T11:17:34;99835.00;;;25.70
19282;BMP180;9774;52.034;5.342;2023-08-01T11:20:03;99836.00;;;25.70
19282;BMP180;9774;52.034;5.342;2023-08-01T11:22:31;99845.00;;;25.70
19282;BMP180;9774;52.034;5.342;2023-08-01T11:24:58;99842.00;;;25.80
19282;BMP180;9774;52.034;5.342;2023-08-01T11:27:25;99842.00;;;25.80
19282;BMP180;9774;52.034;5.342;2023-08-01T11:29:55;99858.00;;;25.80
19282;BMP180;9774;52.034;5.342;2023-08-01T11:32:32;99841.00;;;25.80
19282;BMP180;9774;52.034;5.342;2023-08-01T11:35:00;99850.00;;;25.90
19282;BMP180;9774;52.034;5.342;2023-08-01T11:37:27;99853.00;;;25.90
19282;BMP180;9774;52.034;5.342;2023-08-01T11:39:55;99861.00;;;25.90
19282;BMP180;9774;52.034;5.342;2023-08-01T11:42:22;99864.00;;;25.80
19282;BMP180;9774;52.034;5.342;2023-08-01T11:44:49;99862.00;;;25.80
19282;BMP180;9774;52.034;5.342;2023-08-01T11:47:19;99872.00;;;25.70
19282;BMP180;9774;52.034;5.342;2023-08-01T11:49:47;99873.00;;;25.80
19282;BMP180;9774;52.034;5.342;2023-08-01T11:52:25;99872.00;;;25.70
19282;BMP180;9774;52.034;5.342;2023-08-01T11:54:53;99875.00;;;25.70
19282;BMP180;9774;52.034;5.342;2023-08-01T11:57:21;99882.00;;;25.70
19282;BMP180;9774;52.034;5.342;2023-08-01T11:59:49;99869.00;;;25.70
19282;BMP180;9774;52.034;5.342;2023-08-01T12:02:25;99879.00;;;25.50
19282;BMP180;9774;52.034;5.342;2023-08-01T12:04:53;99873.00;;;25.60
19282;BMP180;9774;52.034;5.342;2023-08-01T12:07:21;99881.00;;;25.60
19282;BMP180;9774;52.034;5.342;2023-08-01T12:09:56;99892.00;;;25.60
19282;BMP180;9774;52.034;5.342;2023-08-01T12:12:23;99897.00;;;25.70
19282;BMP180;9774;52.034;5.342;2023-08-01T12:14:50;99891.00;;;25.60
19282;BMP180;9774;52.034;5.342;2023-08-01T12:17:18;99892.00;;;25.60
19282;BMP180;9774;52.034;5.342;2023-08-01T12:19:47;99899.00;;;25.60
19282;BMP180;9774;52.034;5.342;2023-08-01T12:22:14;99886.00;;;25.50
19282;BMP180;9774;52.034;5.342;2023-08-01T12:24:41;99896.00;;;25.60
19282;BMP180;9774;52.034;5.342;2023-08-01T12:27:08;99891.00;;;25.60
19282;BMP180;9774;52.034;5.342;2023-08-01T12:29:36;99893.00;;;25.70
19282;BMP180;9774;52.034;5.342;2023-08-01T12:32:04;99893.00;;;25.70
19282;BMP180;9774;52.034;5.342;2023-08-01T12:34:32;99893.00;;;25.70
19282;BMP180;9774;52.034;5.342;2023-08-01T12:37:00;99903.00;;;25.70
19282;BMP180;9774;52.034;5.342;2023-08-01T12:39:27;99899.00;;;25.70
19282;BMP180;9774;52.034;5.342;2023-08-01T12:41:54;99895.00;;;25.70
19282;BMP180;9774;52.034;5.342;2023-08-01T12:44:22;99900.00;;;25.70
19282;BMP180;9774;52.034;5.342;2023-08-01T12:46:49;99906.00;;;25.80
19282;BMP180;9774;52.034;5.342;2023-08-01T12:49:17;99901.00;;;25.70
19282;BMP180;9774;52.034;5.342;2023-08-01T12:51:45;99895.00;;;25.70
19282;BMP180;9774;52.034;5.342;2023-08-01T12:54:13;99906.00;;;25.70
19282;BMP180;9774;52.034;5.342;2023-08-01T12:56:40;99910.00;;;25.70
19282;BMP180;9774;52.034;5.342;2023-08-01T12:59:07;99905.00;;;25.70
19282;BMP180;9774;52.034;5.342;2023-08-01T13:01:34;99903.00;;;25.80
19282;BMP180;9774;52.034;5.342;2023-08-01T13:04:01;99902.00;;;25.80
19282;BMP180;9774;52.034;5.342;2023-08-01T13:06:27;99903.00;;;25.80
19282;BMP180;9774;52.034;5.342;2023-08-01T13:08:54;99918.00;;;25.80
19282;BMP180;9774;52.034;5.342;2023-08-01T13:11:23;99915.00;;;25.80
19282;BMP180;9774;52.034;5.342;2023-08-01T13:13:49;99921.00;;;25.70
19282;BMP180;9774;52.034;5.342;2023-08-01T13:16:16;99927.00;;;25.70
19282;BMP180;9774;52.034;5.342;2023-08-01T13:18:43;99938.00;;;25.60
19282;BMP180;9774;52.034;5.342;2023-08-01T13:21:12;99933.00;;;25.60
19282;BMP180;9774;52.034;5.342;2023-08-01T13:23:39;99928.00;;;25.50
19282;BMP180;9774;52.034;5.342;2023-08-01T13:26:06;99933.00;;;25.50
19282;BMP180;9774;52.034;5.342;2023-08-01T13:28:34;99931.00;;;25.50
19282;BMP180;9774;52.034;5.342;2023-08-01T13:31:01;99920.00;;;25.50
19282;BMP180;9774;52.034;5.342;2023-08-01T13:33:28;99921.00;;;25.50
19282;BMP180;9774;52.034;5.342;2023-08-01T13:35:55;99934.00;;;25.50
19282;BMP180;9774;52.034;5.342;2023-08-01T13:38:23;99918.00;;;25.40
19282;BMP180;9774;52.034;5.342;2023-08-01T13:40:50;99920.00;;;25.40
19282;BMP180;9774;52.034;5.342;2023-08-01T13:43:17;99919.00;;;25.40
19282;BMP180;9774;52.034;5.342;2023-08-01T13:45:45;99930.00;;;25.50
19282;BMP180;9774;52.034;5.342;2023-08-01T13:48:12;99921.00;;;25.50
19282;BMP180;9774;52.034;5.342;2023-08-01T13:50:39;99920.00;;;25.50
19282;BMP180;9774;52.034;5.342;2023-08-01T13:53:06;99918.00;;;25.60
19282;BMP180;9774;52.034;5.342;2023-08-01T13:55:36;99926.00;;;25.70
19282;BMP180;9774;52.034;5.342;2023-08-01T13:58:03;99935.00;;;25.80
19282;BMP180;9774;52.034;5.342;2023-08-01T14:00:31;99932.00;;;25.80
19282;BMP180;9774;52.034;5.342;2023-08-01T14:02:59;99934.00;;;25.90
19282;BMP180;9774;52.034;5.342;2023-08-01T14:05:27;99944.00;;;25.90
19282;BMP180;9774;52.034;5.342;2023-08-01T14:07:54;99943.00;;;25.80
19282;BMP180;9774;52.034;5.342;2023-08-01T14:10:22;99953.00;;;25.80
19282;BMP180;9774;52.034;5.342;2023-08-01T14:12:49;99952.00;;;25.80
19282;BMP180;9774;52.034;5.342;2023-08-01T14:15:16;99960.00;;;25.80
19282;BMP180;9774;52.034;5.342;2023-08-01T14:17:43;99955.00;;;25.70
19282;BMP180;9774;52.034;5.342;2023-08-01T14:20:12;99957.00;;;25.60
19282;BMP180;9774;52.034;5.342;2023-08-01T14:22:41;99961.00;;;25.60
19282;BMP180;9774;52.034;5.342;2023-08-01T14:25:08;99959.00;;;25.60
19282;BMP180;9774;52.034;5.342;2023-08-01T14:27:35;99962.00;;;25.60
19282;BMP180;9774;52.034;5.342;2023-08-01T14:30:03;99968.00;;;25.50
19282;BMP180;9774;52.034;5.342;2023-08-01T14:32:31;99964.00;;;25.50
19282;BMP180;9774;52.034;5.342;2023-08-01T14:34:58;99973.00;;;25.50
19282;BMP180;9774;52.034;5.342;2023-08-01T14:37:26;99965.00;;;25.40
19282;BMP180;9774;52.034;5.342;2023-08-01T14:39:55;99966.00;;;25.40
19282;BMP180;9774;52.034;5.342;2023-08-01T14:42:22;99968.00;;;25.40